Terminal Aerodrome Forecast
Issued by NWS Grand Rapids, MI

Home | Current Version | Previous Version | Text Only | Print | Product List | Glossary On
Versions: 1 2 3 4 5 6 7 8 9 10 11 12 13 14 15 16 17
569
FTUS43 KGRR 281740
TAFGRR
TAF
KGRR 281740Z 2818/2918 18013G20KT P6SM SCT050 BKN150
     FM281900 18017G24KT P6SM -SHRA BKN060
     FM290600 21015G23KT P6SM VCTS BKN080CB
     FM291200 22014G21KT P6SM BKN050=

USA.gov is the U.S. government's official web portal to all federal, state and local government web resources and services.